createdAt,value
2023-05-20T00:03:12.223Z,25.60
2023-05-20T00:08:59.756Z,25.70
2023-05-20T00:14:24.722Z,25.90
2023-05-20T00:20:12.628Z,24.20
2023-05-20T00:25:49.263Z,22.60
2023-05-20T00:31:49.690Z,23.60
2023-05-20T00:37:19.940Z,26.30
2023-05-20T00:43:20.443Z,22.80
2023-05-20T00:49:11.025Z,25.50
2023-05-20T00:54:46.816Z,27.40
2023-05-20T01:00:39.002Z,25.00
2023-05-20T01:06:01.178Z,25.50
2023-05-20T01:11:46.507Z,24.80
2023-05-20T01:17:12.997Z,24.80
2023-05-20T01:23:20.071Z,23.50
2023-05-20T01:29:00.135Z,25.20
2023-05-20T01:34:56.085Z,24.60
2023-05-20T01:40:25.978Z,24.30
2023-05-20T01:46:23.104Z,26.40
2023-05-20T01:52:33.726Z,24.50
2023-05-20T01:58:31.918Z,26.20
2023-05-20T02:04:19.604Z,26.00
2023-05-20T02:10:05.405Z,25.00
2023-05-20T02:16:08.724Z,26.60
2023-05-20T02:21:50.968Z,26.90
2023-05-20T02:32:11.735Z,25.30
2023-05-20T02:37:49.976Z,25.00
2023-05-20T02:42:55.761Z,27.00
2023-05-20T02:48:24.856Z,27.10
2023-05-20T02:53:44.090Z,29.30
2023-05-20T02:59:17.152Z,28.60
2023-05-20T03:04:44.743Z,28.20
2023-05-20T03:10:09.421Z,29.70
2023-05-20T03:15:36.947Z,30.40
2023-05-20T03:21:11.179Z,28.70
2023-05-20T03:26:43.672Z,29.00
2023-05-20T03:32:34.521Z,28.90
2023-05-20T03:38:01.874Z,28.70
2023-05-20T03:43:47.693Z,28.90
2023-05-20T03:49:40.497Z,24.40
2023-05-20T03:55:08.092Z,19.90
2023-05-20T04:00:25.955Z,18.20
2023-05-20T04:05:43.311Z,17.00
2023-05-20T04:11:14.188Z,18.90
2023-05-20T04:17:10.870Z,18.70
2023-05-20T04:22:55.246Z,15.60
2023-05-20T04:29:00.489Z,14.80
2023-05-20T04:34:54.422Z,13.90
2023-05-20T04:40:17.305Z,13.30
2023-05-20T04:46:04.831Z,13.30
2023-05-20T04:51:37.113Z,11.90
2023-05-20T04:57:08.423Z,13.20
2023-05-20T05:02:39.056Z,10.90
2023-05-20T05:07:57.047Z,10.40
2023-05-20T05:13:30.897Z,10.60
2023-05-20T05:19:11.142Z,9.00
2023-05-20T05:24:35.111Z,10.00
2023-05-20T05:29:56.851Z,9.30
2023-05-20T05:35:25.733Z,10.40
2023-05-20T05:40:45.774Z,9.80
2023-05-20T05:46:42.758Z,10.20
2023-05-20T05:51:59.751Z,11.00
2023-05-20T05:57:12.142Z,10.10
2023-05-20T06:02:36.220Z,9.70
2023-05-20T06:07:55.980Z,10.10
2023-05-20T06:13:19.046Z,10.20
2023-05-20T06:18:44.506Z,9.90
2023-05-20T06:24:24.463Z,10.50
2023-05-20T06:30:04.677Z,9.20
2023-05-20T06:35:53.682Z,9.20
2023-05-20T06:41:16.670Z,9.40
2023-05-20T06:46:30.412Z,10.60
2023-05-20T06:51:56.413Z,9.70
2023-05-20T06:57:09.963Z,10.60
2023-05-20T07:02:15.312Z,10.50
2023-05-20T07:07:28.578Z,11.90
2023-05-20T07:12:39.731Z,11.20
2023-05-20T07:17:52.439Z,11.40
2023-05-20T07:23:15.836Z,11.00
2023-05-20T07:28:44.165Z,10.20
2023-05-20T07:34:00.413Z,9.90
2023-05-20T07:39:13.136Z,9.70
2023-05-20T07:44:19.080Z,10.00
2023-05-20T07:49:33.228Z,9.40
2023-05-20T07:54:36.685Z,9.50
2023-05-20T07:59:48.838Z,10.20
2023-05-20T08:04:54.822Z,10.20
2023-05-20T08:09:57.917Z,9.70
2023-05-20T08:15:02.289Z,9.70
2023-05-20T08:20:14.873Z,9.40
2023-05-20T08:25:38.296Z,8.90
2023-05-20T08:30:41.638Z,10.30
2023-05-20T08:35:44.467Z,9.80
2023-05-20T08:40:57.444Z,9.30
2023-05-20T08:46:02.399Z,9.60
2023-05-20T08:51:08.417Z,9.50
2023-05-20T08:56:15.237Z,9.50
2023-05-20T09:01:25.378Z,10.20
2023-05-20T09:06:28.130Z,10.70
2023-05-20T09:11:30.168Z,10.60
2023-05-20T09:16:35.750Z,10.50
2023-05-20T09:21:44.814Z,10.70
2023-05-20T09:26:50.230Z,11.30
2023-05-20T09:31:53.415Z,12.00
2023-05-20T09:36:59.493Z,11.60
2023-05-20T09:47:20.847Z,12.90
2023-05-20T09:52:24.621Z,12.90
2023-05-20T09:57:28.078Z,11.50
2023-05-20T10:02:36.784Z,12.20
2023-05-20T10:07:58.735Z,14.00
2023-05-20T10:13:35.256Z,15.20
2023-05-20T10:19:03.658Z,18.10
2023-05-20T10:24:11.093Z,14.10
2023-05-20T10:29:24.744Z,14.30
2023-05-20T10:34:29.550Z,15.40
2023-05-20T10:39:35.832Z,14.90
2023-05-20T10:44:55.035Z,14.60
2023-05-20T10:55:05.050Z,16.80
2023-05-20T11:00:16.843Z,16.20
2023-05-20T11:05:22.016Z,16.40
2023-05-20T11:10:25.367Z,16.10
2023-05-20T11:15:28.010Z,17.50
2023-05-20T11:20:37.483Z,15.50
2023-05-20T11:25:43.202Z,15.70
2023-05-20T11:30:49.267Z,16.80
2023-05-20T11:36:26.863Z,15.20
2023-05-20T11:41:30.268Z,14.70
2023-05-20T11:46:32.234Z,14.70
2023-05-20T11:51:35.040Z,19.30
2023-05-20T11:56:42.795Z,16.10
2023-05-20T12:02:01.553Z,15.10
2023-05-20T12:07:07.007Z,15.90
2023-05-20T12:12:20.174Z,16.40
2023-05-20T12:17:31.629Z,17.90
2023-05-20T12:22:34.184Z,16.90
2023-05-20T12:27:42.799Z,18.00
2023-05-20T12:32:54.095Z,19.60
2023-05-20T12:38:04.674Z,19.70
2023-05-20T12:43:10.130Z,19.80
2023-05-20T12:48:16.844Z,18.60
2023-05-20T12:53:25.593Z,16.80
2023-05-20T12:58:38.637Z,18.00
2023-05-20T13:03:40.802Z,17.30
2023-05-20T13:08:45.408Z,18.00
2023-05-20T13:13:50.252Z,17.40
2023-05-20T13:18:52.765Z,18.20
2023-05-20T13:23:56.676Z,19.10
2023-05-20T13:28:58.918Z,18.60
2023-05-20T13:34:04.532Z,18.40
2023-05-20T13:39:16.842Z,18.00
2023-05-20T13:44:22.138Z,17.60
2023-05-20T13:49:26.914Z,17.50
2023-05-20T13:54:34.783Z,16.50
2023-05-20T13:59:36.953Z,16.50
2023-05-20T14:04:46.869Z,16.00
2023-05-20T14:09:59.257Z,18.20
2023-05-20T14:15:07.387Z,17.40
2023-05-20T14:20:13.023Z,16.50
2023-05-20T14:25:18.596Z,16.60
2023-05-20T14:30:32.221Z,31.60
2023-05-20T14:35:45.501Z,17.20
2023-05-20T14:41:06.001Z,15.80
2023-05-20T14:46:32.516Z,15.70
2023-05-20T14:51:38.035Z,17.90
2023-05-20T14:56:47.139Z,17.00
2023-05-20T15:02:06.627Z,16.20
2023-05-20T15:07:24.669Z,15.20
2023-05-20T15:12:37.186Z,15.20
2023-05-20T15:18:06.347Z,15.20
2023-05-20T15:23:20.320Z,14.60
2023-05-20T15:28:35.629Z,15.10
2023-05-20T15:33:43.305Z,15.10
2023-05-20T15:38:51.883Z,14.60
2023-05-20T15:44:05.647Z,15.40
2023-05-20T15:49:12.543Z,14.80
2023-05-20T15:54:15.538Z,14.40
2023-05-20T15:59:28.116Z,14.10
2023-05-20T16:04:43.740Z,13.60
2023-05-20T16:09:49.092Z,13.50
2023-05-20T16:14:54.215Z,13.20
2023-05-20T16:19:59.524Z,12.60
2023-05-20T16:25:10.948Z,12.30
2023-05-20T16:30:17.645Z,13.00
2023-05-20T16:35:20.031Z,12.30
2023-05-20T16:40:22.981Z,13.30
2023-05-20T16:45:34.649Z,13.00
2023-05-20T16:50:50.846Z,12.80
2023-05-20T16:56:06.651Z,13.00
2023-05-20T17:01:36.934Z,12.80
2023-05-20T17:06:44.966Z,12.70
2023-05-20T17:11:54.481Z,13.20
2023-05-20T17:17:02.534Z,12.90
2023-05-20T17:22:10.981Z,12.50
2023-05-20T17:27:17.188Z,13.50
2023-05-20T17:32:22.756Z,13.30
2023-05-20T17:37:30.348Z,13.40
2023-05-20T17:42:37.716Z,13.20
2023-05-20T17:47:43.241Z,13.10
2023-05-20T17:52:50.822Z,11.90
2023-05-20T17:58:20.896Z,12.00
2023-05-20T18:03:41.736Z,11.50
2023-05-20T18:09:01.681Z,13.00
2023-05-20T18:14:09.435Z,12.70
2023-05-20T18:19:18.832Z,12.40
2023-05-20T18:24:26.906Z,13.10
2023-05-20T18:29:32.254Z,14.60
2023-05-20T18:34:49.142Z,15.90
2023-05-20T18:39:58.708Z,16.40
2023-05-20T18:45:01.355Z,16.40
2023-05-20T18:50:10.727Z,16.50
2023-05-20T18:55:17.793Z,17.00
2023-05-20T19:00:25.814Z,15.90
2023-05-20T19:06:01.731Z,15.90
2023-05-20T19:11:11.680Z,17.30
2023-05-20T19:16:21.808Z,17.50
2023-05-20T19:21:31.276Z,17.50
2023-05-20T19:26:40.793Z,17.40
2023-05-20T19:31:43.816Z,18.00
2023-05-20T19:36:48.703Z,17.40
2023-05-20T19:41:59.120Z,16.70
2023-05-20T19:47:07.180Z,18.70
2023-05-20T19:52:11.561Z,18.40
2023-05-20T19:57:13.698Z,18.70
2023-05-20T20:02:16.411Z,17.40
2023-05-20T20:07:18.703Z,16.80
2023-05-20T20:12:24.974Z,15.50
2023-05-20T20:17:27.092Z,14.70
2023-05-20T20:22:30.428Z,15.40
2023-05-20T20:27:35.012Z,15.60
2023-05-20T20:32:38.006Z,15.70
2023-05-20T20:37:40.392Z,14.50
2023-05-20T20:42:45.186Z,15.00
2023-05-20T20:47:51.657Z,15.00
2023-05-20T20:52:54.086Z,13.90
2023-05-20T20:57:57.712Z,12.90
2023-05-20T21:02:59.657Z,13.60
2023-05-20T21:08:03.440Z,12.90
2023-05-20T21:13:12.007Z,13.70
2023-05-20T21:18:18.111Z,13.10
2023-05-20T21:23:23.509Z,12.60
2023-05-20T21:28:25.616Z,12.30
2023-05-20T21:33:27.948Z,12.70
2023-05-20T21:38:31.039Z,12.90
2023-05-20T21:43:35.928Z,13.30
2023-05-20T21:48:39.750Z,13.70
2023-05-20T21:53:41.810Z,13.30
2023-05-20T21:58:43.851Z,14.00
2023-05-20T22:03:48.793Z,15.70
2023-05-20T22:08:52.636Z,15.70
2023-05-20T22:14:02.328Z,13.30
2023-05-20T22:19:13.724Z,14.80
2023-05-20T22:24:32.685Z,13.70
2023-05-20T22:29:54.949Z,13.30
2023-05-20T22:35:23.790Z,14.70
2023-05-20T22:40:27.162Z,15.70
2023-05-20T22:45:38.301Z,15.80
2023-05-20T22:51:02.053Z,15.60
2023-05-20T22:56:16.220Z,15.40
2023-05-20T23:01:22.316Z,16.00
2023-05-20T23:06:38.151Z,17.30
2023-05-20T23:11:48.779Z,15.70
2023-05-20T23:17:05.010Z,15.50
2023-05-20T23:22:30.340Z,15.40
2023-05-20T23:27:37.716Z,14.70
2023-05-20T23:32:45.908Z,14.90
2023-05-20T23:37:58.536Z,15.00
2023-05-20T23:43:09.985Z,15.60
2023-05-20T23:48:37.396Z,15.90
2023-05-20T23:53:48.133Z,15.80
2023-05-20T23:59:10.374Z,14.60
